Pagina principale
METAR-TAF:

METAR-TAF

Aeroporti :

Aeroporto Internazionale di Damasco

Damasco, Siria

latitudine: 33-25N, longitudine: 036-31E, altezza: 608 m

Osservazione

Il bollettino è stato emesso 2 ore e 51 minuti fa, alle 03:00 UTC
Vento calmo
Temperature 2°C
Umidità 93%
Pressione 1020 hPa
Visibilità: 2000 m
foschia

METAR: OSDI 210300Z 00000KT 2000 BR 02/01 Q1020

Ora: 07:51 (05:51 UTC)

Previsione

Il bollettino è stato emesso 51 minuti fa, alle 05:00 UTC
Previsione valida dal 20 alle 06 UTC al 21 alle 12 UTC
Vento 10 kt da est/nord-est
Visibilità: 8000 m
Poco nuvoloso ad un'altezza di 3000 ft
Nubi sparse ad un'altezza di 10000 ft
Temporaneamente
dal 21 alle 12 UTC al 21 alle 18 UTC
Vento 15 kt da sud-ovest
Visibilità: 8000 m
Poco nuvoloso ad un'altezza di 3000 ft
Nubi sparse ad un'altezza di 10000 ft

TAF: OSDI 210500Z 2006/2112 07010KT 8000 FEW030 SCT100 TEMPO 2112/2118 23015KT 8000 FEW030 SCT100

Osservazioni e previsioni meteorologiche di più di 4000 aeroporti (messaggi METAR e TAF).

Le stazioni disponibili sono rappresentate dai dischi gialli e rossi sulla carta.

Puntare il mouse per vedere il nome della stazione.

Clicca sopra per visualizzare le osservazioni e previsioni meteorologiche.

Per cambiare la mappa : fare clic sui pulsanti verdi con una croce nera per ingrandire, il pulsante verde con un trattino per diminuire, o sulla freccia verde per le mappe adiacenti.


METAR-TAF: